Time,TemperatureF,DewpointF,PressureIn,WindDirection,WindDirectionDegrees,WindSpeedMPH,WindSpeedGustMPH,Humidity,HourlyPrecipIn,Conditions,Clouds,dailyrainin,SoftwareType,DateUTC
2013-05-14 00:04:00,47.3,33.7,29.96,SE,135,0.0,11.0,59,0.00,,,0.00,WUHU21023XXSP,2013-05-14 05:04:00,
2013-05-14 00:11:00,47.3,33.7,29.95,SE,135,0.0,8.0,59,0.00,,,0.00,WUHU21023XXSP,2013-05-14 05:11:00,
2013-05-14 00:17:00,47.3,33.7,29.95,SE,135,7.0,8.0,59,0.00,,,0.00,WUHU21023XXSP,2013-05-14 05:17:00,
2013-05-14 00:24:00,47.3,33.7,29.95,SSE,157,6.0,7.0,59,0.00,,,0.00,WUHU21023XXSP,2013-05-14 05:24:00,
2013-05-14 00:30:00,47.3,34.2,29.95,SE,135,0.0,6.0,60,0.00,,,0.00,WUHU21023XXSP,2013-05-14 05:30:00,
2013-05-14 00:36:00,47.5,34.3,29.94,ESE,112,0.0,5.0,60,0.00,,,0.00,WUHU21023XXSP,2013-05-14 05:36:00,
2013-05-14 00:43:00,47.5,34.3,29.94,SE,135,0.0,5.0,60,0.00,,,0.00,WUHU21023XXSP,2013-05-14 05:43:00,
2013-05-14 00:49:00,47.5,34.3,29.93,SE,135,0.0,6.0,60,0.00,,,0.00,WUHU21023XXSP,2013-05-14 05:49:00,
2013-05-14 00:56:00,47.5,34.7,29.93,SE,135,0.0,8.0,61,0.00,,,0.00,WUHU21023XXSP,2013-05-14 05:56:00,
2013-05-14 01:02:00,47.5,34.7,29.92,SSE,157,0.0,8.0,61,0.00,,,0.00,WUHU21023XXSP,2013-05-14 06:02:00,
2013-05-14 01:09:00,47.5,34.7,29.92,SE,135,0.0,4.0,61,0.00,,,0.00,WUHU21023XXSP,2013-05-14 06:09:00,
2013-05-14 01:15:00,47.5,34.7,29.91,SE,135,0.0,1.0,61,0.00,,,0.00,WUHU21023XXSP,2013-05-14 06:15:00,
2013-05-14 01:21:00,47.5,34.7,29.91,SE,135,0.0,1.0,61,0.00,,,0.00,WUHU21023XXSP,2013-05-14 06:21:00,
2013-05-14 01:28:00,47.5,34.7,29.91,SE,135,0.0,0.0,61,0.00,,,0.00,WUHU21023XXSP,2013-05-14 06:28:00,
2013-05-14 01:34:00,47.5,34.7,29.90,SSE,157,0.0,0.0,61,0.00,,,0.00,WUHU21023XXSP,2013-05-14 06:34:00,
2013-05-14 01:41:00,47.5,34.7,29.90,ESE,112,7.0,7.0,61,0.00,,,0.00,WUHU21023XXSP,2013-05-14 06:41:00,
2013-05-14 01:47:00,47.3,34.5,29.89,SE,135,0.0,7.0,61,0.00,,,0.00,WUHU21023XXSP,2013-05-14 06:47:00,
2013-05-14 01:54:00,47.5,34.7,29.89,SE,135,0.0,1.0,61,0.00,,,0.00,WUHU21023XXSP,2013-05-14 06:54:00,
2013-05-14 02:00:00,47.5,34.7,29.88,ESE,112,0.0,0.0,61,0.00,,,0.00,WUHU21023XXSP,2013-05-14 07:00:00,
2013-05-14 02:06:00,47.5,35.1,29.88,SE,135,0.0,0.0,62,0.00,,,0.00,WUHU21023XXSP,2013-05-14 07:06:00,
2013-05-14 02:13:00,47.5,35.1,29.88,SSE,157,0.0,0.0,62,0.00,,,0.00,WUHU21023XXSP,2013-05-14 07:13:00,
2013-05-14 02:19:00,47.5,35.1,29.87,SSE,157,0.0,0.0,62,0.00,,,0.00,WUHU21023XXSP,2013-05-14 07:19:00,
2013-05-14 02:26:00,47.7,35.3,29.87,SSW,202,0.0,0.0,62,0.00,,,0.00,WUHU21023XXSP,2013-05-14 07:26:00,
2013-05-14 02:32:00,47.8,35.5,29.87,SSW,202,2.0,3.0,62,0.00,,,0.00,WUHU21023XXSP,2013-05-14 07:32:00,
2013-05-14 02:38:00,48.2,35.4,29.87,SSE,157,0.0,2.0,61,0.00,,,0.00,WUHU21023XXSP,2013-05-14 07:38:00,
2013-05-14 02:45:00,48.6,35.8,29.86,South,180,0.0,0.0,61,0.00,,,0.00,WUHU21023XXSP,2013-05-14 07:45:00,
2013-05-14 02:51:00,48.9,36.1,29.86,South,180,0.0,0.0,61,0.00,,,0.00,WUHU21023XXSP,2013-05-14 07:51:00,
2013-05-14 02:58:00,49.1,36.2,29.85,SSW,202,0.0,0.0,61,0.00,,,0.00,WUHU21023XXSP,2013-05-14 07:58:00,
2013-05-14 03:04:00,49.1,36.2,29.85,SSE,157,0.0,0.0,61,0.00,,,0.00,WUHU21023XXSP,2013-05-14 08:04:00,
2013-05-14 03:11:00,49.1,36.2,29.84,South,180,0.0,0.0,61,0.00,,,0.00,WUHU21023XXSP,2013-05-14 08:11:00,
2013-05-14 03:17:00,49.1,36.2,29.84,SSE,157,0.0,0.0,61,0.00,,,0.00,WUHU21023XXSP,2013-05-14 08:17:00,
2013-05-14 03:23:00,49.3,36.8,29.84,SE,135,0.0,0.0,62,0.00,,,0.00,WUHU21023XXSP,2013-05-14 08:23:00,
2013-05-14 03:30:00,49.3,36.8,29.84,SSW,202,0.0,0.0,62,0.00,,,0.00,WUHU21023XXSP,2013-05-14 08:30:00,
2013-05-14 03:36:00,49.3,36.8,29.83,SSE,157,0.0,0.0,62,0.00,,,0.00,WUHU21023XXSP,2013-05-14 08:36:00,
2013-05-14 03:43:00,49.3,37.2,29.83,South,180,0.0,0.0,63,0.00,,,0.00,WUHU21023XXSP,2013-05-14 08:43:00,
2013-05-14 03:49:00,49.6,37.5,29.82,SSW,202,0.0,0.0,63,0.00,,,0.00,WUHU21023XXSP,2013-05-14 08:49:00,
2013-05-14 03:56:00,50.7,38.1,29.82,SSW,202,4.0,4.0,62,0.00,,,0.00,WUHU21023XXSP,2013-05-14 08:56:00,
2013-05-14 04:02:00,52.5,39.0,29.82,SSW,202,11.0,11.0,60,0.00,,,0.00,WUHU21023XXSP,2013-05-14 09:02:00,
2013-05-14 04:08:00,54.3,39.3,29.81,WSW,247,6.0,11.0,57,0.00,,,0.00,WUHU21023XXSP,2013-05-14 09:08:00,
2013-05-14 04:15:00,55.6,40.0,29.80,SSW,202,2.0,7.0,56,0.00,,,0.00,WUHU21023XXSP,2013-05-14 09:15:00,
2013-05-14 04:21:00,56.3,40.3,29.80,SSW,202,0.0,9.0,55,0.00,,,0.00,WUHU21023XXSP,2013-05-14 09:21:00,
2013-05-14 04:28:00,56.8,40.4,29.81,South,180,6.0,9.0,54,0.00,,,0.00,WUHU21023XXSP,2013-05-14 09:28:00,
2013-05-14 04:34:00,57.0,40.5,29.80,SSE,157,0.0,8.0,54,0.00,,,0.00,WUHU21023XXSP,2013-05-14 09:34:00,
2013-05-14 04:41:00,57.4,40.9,29.80,WSW,247,9.0,9.0,54,0.00,,,0.00,WUHU21023XXSP,2013-05-14 09:41:00,
2013-05-14 04:47:00,57.6,40.6,29.80,SE,135,0.0,9.0,53,0.00,,,0.00,WUHU21023XXSP,2013-05-14 09:47:00,
2013-05-14 04:53:00,57.7,40.7,29.79,SSW,202,0.0,11.0,53,0.00,,,0.00,WUHU21023XXSP,2013-05-14 09:53:00,
2013-05-14 05:00:00,57.7,40.7,29.78,SW,225,0.0,11.0,53,0.00,,,0.00,WUHU21023XXSP,2013-05-14 10:00:00,
2013-05-14 05:06:00,57.7,40.7,29.78,SSE,157,5.0,13.0,53,0.00,,,0.00,WUHU21023XXSP,2013-05-14 10:06:00,
2013-05-14 05:13:00,57.7,41.2,29.78,SSW,202,6.0,13.0,54,0.00,,,0.00,WUHU21023XXSP,2013-05-14 10:13:00,
2013-05-14 05:19:00,57.6,41.0,29.78,SW,225,14.0,14.0,54,0.00,,,0.00,WUHU21023XXSP,2013-05-14 10:19:00,
2013-05-14 05:26:00,57.4,41.3,29.77,SSW,202,0.0,14.0,55,0.00,,,0.00,WUHU21023XXSP,2013-05-14 10:26:00,
2013-05-14 05:32:00,57.4,41.3,29.77,WSW,247,8.0,8.0,55,0.00,,,0.00,WUHU21023XXSP,2013-05-14 10:32:00,
2013-05-14 05:38:00,57.6,41.5,29.77,WSW,247,10.0,10.0,55,0.00,,,0.00,WUHU21023XXSP,2013-05-14 10:38:00,
2013-05-14 05:45:00,57.6,41.5,29.77,SSW,202,0.0,10.0,55,0.00,,,0.00,WUHU21023XXSP,2013-05-14 10:45:00,
2013-05-14 05:51:00,57.6,41.5,29.77,SSW,202,0.0,12.0,55,0.00,,,0.00,WUHU21023XXSP,2013-05-14 10:51:00,
2013-05-14 05:58:00,57.6,41.5,29.77,SW,225,6.0,14.0,55,0.00,,,0.00,WUHU21023XXSP,2013-05-14 10:58:00,
2013-05-14 06:04:00,57.4,41.3,29.77,South,180,0.0,10.0,55,0.00,,,0.00,WUHU21023XXSP,2013-05-14 11:04:00,
2013-05-14 06:11:00,57.4,41.3,29.77,SSW,202,0.0,10.0,55,0.00,,,0.00,WUHU21023XXSP,2013-05-14 11:11:00,
2013-05-14 06:17:00,57.0,41.0,29.77,SSW,202,10.0,10.0,55,0.00,,,0.00,WUHU21023XXSP,2013-05-14 11:17:00,
2013-05-14 06:23:00,57.0,41.5,29.78,SSW,202,0.0,10.0,56,0.00,,,0.00,WUHU21023XXSP,2013-05-14 11:23:00,
2013-05-14 06:30:00,56.8,41.3,29.77,SSW,202,10.0,10.0,56,0.00,,,0.00,WUHU21023XXSP,2013-05-14 11:30:00,
2013-05-14 06:36:00,56.8,41.8,29.77,SSW,202,4.0,10.0,57,0.00,,,0.00,WUHU21023XXSP,2013-05-14 11:36:00,
2013-05-14 06:43:00,56.8,41.8,29.77,SW,225,6.0,6.0,57,0.00,,,0.00,WUHU21023XXSP,2013-05-14 11:43:00,
2013-05-14 06:49:00,56.8,42.2,29.77,South,180,0.0,8.0,58,0.00,,,0.00,WUHU21023XXSP,2013-05-14 11:49:00,
2013-05-14 06:55:00,57.0,42.4,29.77,SW,225,0.0,11.0,58,0.00,,,0.00,WUHU21023XXSP,2013-05-14 11:55:00,
2013-05-14 07:02:00,57.0,42.4,29.77,SSW,202,5.0,11.0,58,0.00,,,0.00,WUHU21023XXSP,2013-05-14 12:02:00,
2013-05-14 07:08:00,57.0,42.4,29.77,SSW,202,3.0,6.0,58,0.00,,,0.00,WUHU21023XXSP,2013-05-14 12:08:00,
2013-05-14 07:15:00,57.0,42.9,29.78,SSW,202,10.0,11.0,59,0.00,,,0.00,WUHU21023XXSP,2013-05-14 12:15:00,
2013-05-14 07:21:00,57.4,43.2,29.77,SW,225,0.0,11.0,59,0.00,,,0.00,WUHU21023XXSP,2013-05-14 12:21:00,
2013-05-14 07:28:00,57.4,43.2,29.77,SSW,202,0.0,5.0,59,0.00,,,0.00,WUHU21023XXSP,2013-05-14 12:28:00,
2013-05-14 07:34:00,57.6,43.4,29.77,SSW,202,0.0,14.0,59,0.00,,,0.00,WUHU21023XXSP,2013-05-14 12:34:00,
2013-05-14 07:40:00,57.7,43.5,29.77,SW,225,0.0,14.0,59,0.00,,,0.00,WUHU21023XXSP,2013-05-14 12:40:00,
2013-05-14 07:47:00,58.1,44.3,29.77,SW,225,11.0,11.0,60,0.00,,,0.00,WUHU21023XXSP,2013-05-14 12:47:00,
2013-05-14 07:53:00,58.3,44.5,29.77,SW,225,9.0,11.0,60,0.00,,,0.00,WUHU21023XXSP,2013-05-14 12:53:00,
2013-05-14 08:00:00,58.8,45.0,29.76,SW,225,6.0,10.0,60,0.00,,,0.00,WUHU21023XXSP,2013-05-14 13:00:00,
2013-05-14 08:06:00,58.8,45.0,29.76,SW,225,8.0,11.0,60,0.00,,,0.00,WUHU21023XXSP,2013-05-14 13:06:00,
2013-05-14 08:13:00,59.2,45.3,29.75,WSW,247,9.0,11.0,60,0.00,,,0.00,WUHU21023XXSP,2013-05-14 13:13:00,
2013-05-14 08:19:00,59.5,45.7,29.75,SSE,157,1.0,9.0,60,0.00,,,0.00,WUHU21023XXSP,2013-05-14 13:19:00,
2013-05-14 08:25:00,60.1,46.2,29.75,SW,225,10.0,13.0,60,0.00,,,0.00,WUHU21023XXSP,2013-05-14 13:25:00,
2013-05-14 08:32:00,60.4,46.6,29.75,WSW,247,10.0,15.0,60,0.00,,,0.00,WUHU21023XXSP,2013-05-14 13:32:00,
2013-05-14 08:38:00,60.6,46.8,29.75,SW,225,0.0,15.0,60,0.00,,,0.00,WUHU21023XXSP,2013-05-14 13:38:00,
2013-05-14 08:45:00,61.2,47.3,29.75,SW,225,0.0,10.0,60,0.00,,,0.00,WUHU21023XXSP,2013-05-14 13:45:00,
2013-05-14 08:51:00,61.7,47.8,29.75,WSW,247,10.0,13.0,60,0.00,,,0.00,WUHU21023XXSP,2013-05-14 13:51:00,
2013-05-14 08:58:00,62.2,48.2,29.75,SW,225,0.0,13.0,60,0.00,,,0.00,WUHU21023XXSP,2013-05-14 13:58:00,
2013-05-14 09:04:00,62.8,48.7,29.74,West,270,0.0,8.0,60,0.00,,,0.00,WUHU21023XXSP,2013-05-14 14:04:00,
2013-05-14 09:10:00,63.3,49.2,29.74,West,270,6.0,10.0,60,0.00,,,0.00,WUHU21023XXSP,2013-05-14 14:10:00,
2013-05-14 09:17:00,63.9,49.7,29.74,SSE,157,4.0,6.0,60,0.00,,,0.00,WUHU21023XXSP,2013-05-14 14:17:00,
2013-05-14 09:23:00,64.6,49.9,29.73,SSW,202,0.0,4.0,59,0.00,,,0.00,WUHU21023XXSP,2013-05-14 14:23:00,
2013-05-14 09:30:00,65.1,50.4,29.72,SW,225,16.0,16.0,59,0.00,,,0.00,WUHU21023XXSP,2013-05-14 14:30:00,
2013-05-14 09:36:00,65.8,51.1,29.73,WSW,247,0.0,16.0,59,0.00,,,0.00,WUHU21023XXSP,2013-05-14 14:36:00,
2013-05-14 09:42:00,66.2,51.5,29.72,WSW,247,0.0,7.0,59,0.00,,,0.00,WUHU21023XXSP,2013-05-14 14:42:00,
2013-05-14 09:49:00,66.9,51.2,29.72,SSW,202,5.0,13.0,57,0.00,,,0.00,WUHU21023XXSP,2013-05-14 14:49:00,
2013-05-14 09:55:00,67.5,51.7,29.72,WSW,247,0.0,13.0,57,0.00,,,0.00,WUHU21023XXSP,2013-05-14 14:55:00,
2013-05-14 10:02:00,67.8,51.5,29.73,SSW,202,4.0,8.0,56,0.00,,,0.00,WUHU21023XXSP,2013-05-14 15:02:00,
2013-05-14 10:08:00,68.5,52.2,29.72,North,0,0.0,7.0,56,0.00,,,0.00,WUHU21023XXSP,2013-05-14 15:08:00,
2013-05-14 10:15:00,69.1,52.2,29.72,WSW,247,20.0,20.0,55,0.00,,,0.00,WUHU21023XXSP,2013-05-14 15:15:00,
2013-05-14 10:21:00,69.6,52.7,29.72,WSW,247,0.0,20.0,55,0.00,,,0.00,WUHU21023XXSP,2013-05-14 15:21:00,
2013-05-14 10:27:00,70.3,52.9,29.72,South,180,0.0,7.0,54,0.00,,,0.00,WUHU21023XXSP,2013-05-14 15:27:00,
2013-05-14 10:34:00,70.5,52.5,29.73,SW,225,0.0,7.0,53,0.00,,,0.00,WUHU21023XXSP,2013-05-14 15:34:00,
2013-05-14 10:40:00,70.9,52.8,29.73,West,270,7.0,8.0,53,0.00,,,0.00,WUHU21023XXSP,2013-05-14 15:40:00,
2013-05-14 10:47:00,71.2,53.2,29.73,SSW,202,6.0,8.0,53,0.00,,,0.00,WUHU21023XXSP,2013-05-14 15:47:00,
2013-05-14 10:53:00,71.8,53.7,29.73,SW,225,0.0,6.0,53,0.00,,,0.00,WUHU21023XXSP,2013-05-14 15:53:00,
2013-05-14 10:59:00,72.5,53.8,29.74,West,270,0.0,2.0,52,0.00,,,0.00,WUHU21023XXSP,2013-05-14 15:59:00,
2013-05-14 11:06:00,73.2,54.4,29.74,WSW,247,0.0,2.0,52,0.00,,,0.00,WUHU21023XXSP,2013-05-14 16:06:00,
2013-05-14 11:13:00,73.9,55.1,29.74,NNW,337,0.0,20.0,52,0.00,,,0.00,WUHU21023XXSP,2013-05-14 16:13:00,
2013-05-14 11:20:00,75.0,55.7,29.74,WNW,292,38.0,38.0,51,0.00,,,0.00,WUHU21023XXSP,2013-05-14 16:20:00,
2013-05-14 11:25:00,75.4,55.0,29.74,NW,315,38.0,38.0,49,0.00,,,0.00,WUHU21023XXSP,2013-05-14 16:25:00,
2013-05-14 11:31:00,75.9,55.4,29.74,NW,315,0.0,38.0,49,0.00,,,0.00,WUHU21023XXSP,2013-05-14 16:31:00,
2013-05-14 11:36:00,76.3,55.1,29.74,WSW,247,0.0,34.0,48,0.00,,,0.00,WUHU21023XXSP,2013-05-14 16:36:00,
2013-05-14 11:41:00,76.3,54.5,29.74,West,270,0.0,39.0,47,0.00,,,0.00,WUHU21023XXSP,2013-05-14 16:41:00,
2013-05-14 11:47:00,76.3,54.5,29.74,SW,225,0.0,39.0,47,0.00,,,0.00,WUHU21023XXSP,2013-05-14 16:47:00,
2013-05-14 11:52:00,76.6,55.5,29.74,South,180,0.0,43.0,48,0.00,,,0.00,WUHU21023XXSP,2013-05-14 16:52:00,
2013-05-14 11:59:00,76.8,54.4,29.74,SW,225,0.0,39.0,46,0.00,,,0.00,WUHU21023XXSP,2013-05-14 16:59:00,
2013-05-14 12:04:00,76.8,55.0,29.74,WNW,292,32.0,33.0,47,0.00,,,0.00,WUHU21023XXSP,2013-05-14 17:04:00,
2013-05-14 12:10:00,77.4,55.5,29.74,WSW,247,0.0,41.0,47,0.00,,,0.00,WUHU21023XXSP,2013-05-14 17:10:00,
2013-05-14 12:15:00,77.7,55.8,29.74,SSE,157,49.0,49.0,47,0.00,,,0.00,WUHU21023XXSP,2013-05-14 17:15:00,
2013-05-14 12:20:00,78.1,55.5,29.74,SSW,202,42.0,49.0,46,0.00,,,0.00,WUHU21023XXSP,2013-05-14 17:20:00,
2013-05-14 12:26:00,78.4,57.1,29.74,WNW,292,40.0,45.0,48,0.00,,,0.00,WUHU21023XXSP,2013-05-14 17:26:00,
2013-05-14 12:31:00,79.0,57.0,29.74,NNW,337,0.0,45.0,47,0.00,,,0.00,WUHU21023XXSP,2013-05-14 17:31:00,
2013-05-14 12:38:00,79.5,56.8,29.74,West,270,0.0,44.0,46,0.00,,,0.00,WUHU21023XXSP,2013-05-14 17:38:00,
2013-05-14 12:43:00,79.9,57.2,29.74,NNW,337,31.0,49.0,46,0.00,,,0.00,WUHU21023XXSP,2013-05-14 17:43:00,
2013-05-14 12:50:00,80.4,57.7,29.74,NNW,337,47.0,49.0,46,0.00,,,0.00,WUHU21023XXSP,2013-05-14 17:50:00,
2013-05-14 12:56:00,80.8,57.4,29.74,SW,225,0.0,47.0,45,0.00,,,0.00,WUHU21023XXSP,2013-05-14 17:56:00,
2013-05-14 13:01:00,80.8,56.8,29.74,WSW,247,0.0,45.0,44,0.00,,,0.00,WUHU21023XXSP,2013-05-14 18:01:00,
2013-05-14 13:08:00,81.0,57.5,29.74,West,270,43.0,46.0,45,0.00,,,0.00,WUHU21023XXSP,2013-05-14 18:08:00,
2013-05-14 13:13:00,81.1,56.5,29.74,WSW,247,0.0,43.0,43,0.00,,,0.00,WUHU21023XXSP,2013-05-14 18:13:00,
2013-05-14 13:19:00,81.5,56.2,29.74,West,270,41.0,41.0,42,0.00,,,0.00,WUHU21023XXSP,2013-05-14 18:19:00,
2013-05-14 13:25:00,81.5,56.2,29.73,SSW,202,0.0,41.0,42,0.00,,,0.00,WUHU21023XXSP,2013-05-14 18:25:00,
2013-05-14 13:30:00,81.7,57.6,29.73,SSW,202,32.0,44.0,44,0.00,,,0.00,WUHU21023XXSP,2013-05-14 18:30:00,
2013-05-14 13:39:00,82.0,56.7,29.73,SW,225,0.0,32.0,42,0.00,,,0.00,WUHU21023XXSP,2013-05-14 18:39:00,
2013-05-14 13:45:00,82.6,56.5,29.73,West,270,0.0,20.0,41,0.00,,,0.00,WUHU21023XXSP,2013-05-14 18:45:00,
2013-05-14 13:51:00,83.1,56.4,29.73,ESE,112,0.0,0.0,40,0.00,,,0.00,WUHU21023XXSP,2013-05-14 18:51:00,
2013-05-14 13:58:00,84.0,57.2,29.72,West,270,0.0,0.0,40,0.00,,,0.00,WUHU21023XXSP,2013-05-14 18:58:00,
2013-05-14 14:04:00,84.9,57.2,29.72,WNW,292,6.0,6.0,39,0.00,,,0.00,WUHU21023XXSP,2013-05-14 19:04:00,
2013-05-14 14:11:00,85.8,58.8,29.73,NNW,337,4.0,6.0,40,0.00,,,0.00,WUHU21023XXSP,2013-05-14 19:11:00,
2013-05-14 14:17:00,86.9,59.8,29.74,NW,315,0.0,4.0,40,0.00,,,0.00,WUHU21023XXSP,2013-05-14 19:17:00,
2013-05-14 14:24:00,88.0,59.1,29.74,NNW,337,0.0,0.0,38,0.00,,,0.00,WUHU21023XXSP,2013-05-14 19:24:00,
2013-05-14 14:30:00,88.9,59.9,29.73,NNW,337,0.0,0.0,38,0.00,,,0.00,WUHU21023XXSP,2013-05-14 19:30:00,
2013-05-14 14:36:00,89.8,59.1,29.74,NW,315,0.0,0.0,36,0.00,,,0.00,WUHU21023XXSP,2013-05-14 19:36:00,
2013-05-14 14:43:00,90.3,59.5,29.74,NNW,337,0.0,0.0,36,0.00,,,0.00,WUHU21023XXSP,2013-05-14 19:43:00,
2013-05-14 14:49:00,91.2,59.6,29.73,NW,315,0.0,0.0,35,0.00,,,0.00,WUHU21023XXSP,2013-05-14 19:49:00,
2013-05-14 14:56:00,91.6,59.9,29.73,NNW,337,0.0,1.0,35,0.00,,,0.00,WUHU21023XXSP,2013-05-14 19:56:00,
2013-05-14 15:02:00,91.9,60.2,29.73,North,0,0.0,1.0,35,0.00,,,0.00,WUHU21023XXSP,2013-05-14 20:02:00,
2013-05-14 15:08:00,91.9,60.2,29.72,NNW,337,0.0,0.0,35,0.00,,,0.00,WUHU21023XXSP,2013-05-14 20:08:00,
2013-05-14 15:15:00,91.9,60.2,29.73,NNE,22,0.0,0.0,35,0.00,,,0.00,WUHU21023XXSP,2013-05-14 20:15:00,
2013-05-14 15:21:00,91.6,59.1,29.72,ENE,67,0.0,0.0,34,0.00,,,0.00,WUHU21023XXSP,2013-05-14 20:21:00,
2013-05-14 15:28:00,91.2,59.6,29.72,ENE,67,0.0,1.0,35,0.00,,,0.00,WUHU21023XXSP,2013-05-14 20:28:00,
2013-05-14 15:34:00,91.0,58.6,29.72,NNW,337,0.0,0.0,34,0.00,,,0.00,WUHU21023XXSP,2013-05-14 20:34:00,
2013-05-14 15:41:00,90.3,58.7,29.71,NE,45,0.0,0.0,35,0.00,,,0.00,WUHU21023XXSP,2013-05-14 20:41:00,
2013-05-14 15:47:00,90.0,58.4,29.71,ENE,67,0.0,0.0,35,0.00,,,0.00,WUHU21023XXSP,2013-05-14 20:47:00,
2013-05-14 15:53:00,88.9,57.5,29.70,East,90,0.0,0.0,35,0.00,,,0.00,WUHU21023XXSP,2013-05-14 20:53:00,
2013-05-14 16:00:00,88.5,57.2,29.69,ENE,67,0.0,0.0,35,0.00,,,0.00,WUHU21023XXSP,2013-05-14 21:00:00,
2013-05-14 16:05:00,88.2,56.1,29.69,East,90,2.0,40.0,34,0.00,,,0.00,WUHU21023XXSP,2013-05-14 21:05:00,
2013-05-14 16:11:00,87.4,56.3,29.69,SE,135,0.0,50.0,35,0.00,,,0.00,WUHU21023XXSP,2013-05-14 21:11:00,
2013-05-14 16:17:00,86.7,55.7,29.68,SE,135,4.0,50.0,35,0.00,,,0.00,WUHU21023XXSP,2013-05-14 21:17:00,
2013-05-14 16:24:00,85.8,55.7,29.67,SE,135,2.0,36.0,36,0.00,,,0.00,WUHU21023XXSP,2013-05-14 21:24:00,
2013-05-14 16:30:00,84.7,53.9,29.66,SE,135,5.0,6.0,35,0.00,,,0.00,WUHU21023XXSP,2013-05-14 21:30:00,
2013-05-14 16:37:00,84.0,54.0,29.66,SE,135,2.0,9.0,36,0.00,,,0.00,WUHU21023XXSP,2013-05-14 21:37:00,
2013-05-14 16:43:00,83.8,53.9,29.66,SE,135,11.0,11.0,36,0.00,,,0.00,WUHU21023XXSP,2013-05-14 21:43:00,
2013-05-14 16:50:00,83.3,54.2,29.65,SE,135,6.0,40.0,37,0.00,,,0.00,WUHU21023XXSP,2013-05-14 21:50:00,
2013-05-14 16:57:00,83.1,54.8,29.66,SSE,157,36.0,41.0,38,0.00,,,0.00,WUHU21023XXSP,2013-05-14 21:57:00,
2013-05-14 17:02:00,83.5,56.7,29.65,SE,135,41.0,41.0,40,0.00,,,0.00,WUHU21023XXSP,2013-05-14 22:02:00,
2013-05-14 17:08:00,84.0,57.2,29.65,SE,135,41.0,41.0,40,0.00,,,0.00,WUHU21023XXSP,2013-05-14 22:08:00,
2013-05-14 17:14:00,84.0,56.4,29.65,SE,135,3.0,43.0,39,0.00,,,0.00,WUHU21023XXSP,2013-05-14 22:14:00,
2013-05-14 17:19:00,84.0,56.4,29.65,SE,135,41.0,44.0,39,0.00,,,0.00,WUHU21023XXSP,2013-05-14 22:19:00,
2013-05-14 17:24:00,84.0,57.2,29.65,SSE,157,4.0,44.0,40,0.00,,,0.00,WUHU21023XXSP,2013-05-14 22:24:00,
2013-05-14 17:31:00,84.0,57.2,29.64,SSE,157,0.0,44.0,40,0.00,,,0.00,WUHU21023XXSP,2013-05-14 22:31:00,
2013-05-14 17:38:00,83.8,57.7,29.64,SE,135,3.0,44.0,41,0.00,,,0.00,WUHU21023XXSP,2013-05-14 22:38:00,
2013-05-14 17:44:00,83.5,56.7,29.64,SE,135,20.0,20.0,40,0.00,,,0.00,WUHU21023XXSP,2013-05-14 22:44:00,
2013-05-14 17:51:00,82.9,56.9,29.64,SE,135,6.0,27.0,41,0.00,,,0.00,WUHU21023XXSP,2013-05-14 22:51:00,
2013-05-14 17:58:00,82.6,56.5,29.63,SE,135,0.0,27.0,41,0.00,,,0.00,WUHU21023XXSP,2013-05-14 22:58:00,
2013-05-14 18:04:00,82.2,56.8,29.63,SE,135,2.0,10.0,42,0.00,,,0.00,WUHU21023XXSP,2013-05-14 23:04:00,
2013-05-14 18:10:00,81.5,57.4,29.63,SE,135,0.0,4.0,44,0.00,,,0.00,WUHU21023XXSP,2013-05-14 23:10:00,
2013-05-14 18:17:00,81.0,56.9,29.63,East,90,0.0,4.0,44,0.00,,,0.00,WUHU21023XXSP,2013-05-14 23:17:00,
2013-05-14 18:24:00,80.4,57.0,29.64,NE,45,0.0,1.0,45,0.00,,,0.00,WUHU21023XXSP,2013-05-14 23:24:00,
2013-05-14 18:30:00,79.9,57.2,29.63,ENE,67,0.0,1.0,46,0.00,,,0.00,WUHU21023XXSP,2013-05-14 23:30:00,
2013-05-14 18:37:00,79.3,56.7,29.63,NE,45,7.0,7.0,46,0.00,,,0.00,WUHU21023XXSP,2013-05-14 23:37:00,
2013-05-14 18:43:00,78.6,56.6,29.62,SSE,157,12.0,12.0,47,0.00,,,0.00,WUHU21023XXSP,2013-05-14 23:43:00,
2013-05-14 18:49:00,77.7,55.8,29.63,SE,135,0.0,12.0,47,0.00,,,0.00,WUHU21023XXSP,2013-05-14 23:49:00,
2013-05-14 18:56:00,76.8,55.0,29.63,SE,135,0.0,0.0,47,0.00,,,0.00,WUHU21023XXSP,2013-05-14 23:56:00,
2013-05-14 19:02:00,76.3,55.1,29.62,ESE,112,0.0,0.0,48,0.00,,,0.00,WUHU21023XXSP,2013-05-15 00:02:00,
2013-05-14 19:09:00,75.7,55.3,29.62,East,90,0.0,0.0,49,0.00,,,0.00,WUHU21023XXSP,2013-05-15 00:09:00,
2013-05-14 19:15:00,75.0,55.2,29.63,ENE,67,0.0,0.0,50,0.00,,,0.00,WUHU21023XXSP,2013-05-15 00:15:00,
2013-05-14 19:22:00,74.5,55.2,29.62,East,90,0.0,0.0,51,0.00,,,0.00,WUHU21023XXSP,2013-05-15 00:22:00,
2013-05-14 19:28:00,73.9,55.1,29.62,SE,135,0.0,0.0,52,0.00,,,0.00,WUHU21023XXSP,2013-05-15 00:28:00,
2013-05-14 19:34:00,73.2,54.4,29.63,SE,135,0.0,0.0,52,0.00,,,0.00,WUHU21023XXSP,2013-05-15 00:34:00,
2013-05-14 19:41:00,72.7,54.5,29.64,SE,135,0.0,0.0,53,0.00,,,0.00,WUHU21023XXSP,2013-05-15 00:41:00,
2013-05-14 19:47:00,72.3,54.6,29.64,SE,135,0.0,0.0,54,0.00,,,0.00,WUHU21023XXSP,2013-05-15 00:47:00,
2013-05-14 19:54:00,71.8,55.2,29.63,SSW,202,0.0,0.0,56,0.00,,,0.00,WUHU21023XXSP,2013-05-15 00:54:00,
2013-05-14 20:00:00,71.4,54.8,29.63,SE,135,0.0,1.0,56,0.00,,,0.00,WUHU21023XXSP,2013-05-15 01:00:00,
2013-05-14 20:07:00,71.4,54.8,29.64,SSE,157,13.0,13.0,56,0.00,,,0.00,WUHU21023XXSP,2013-05-15 01:07:00,
2013-05-14 20:13:00,71.8,55.2,29.62,South,180,13.0,13.0,56,0.00,,,0.00,WUHU21023XXSP,2013-05-15 01:13:00,
2013-05-14 20:19:00,72.0,54.8,29.64,SW,225,1.0,13.0,55,0.00,,,0.00,WUHU21023XXSP,2013-05-15 01:19:00,
2013-05-14 20:26:00,72.1,55.0,29.65,SW,225,0.0,1.0,55,0.00,,,0.00,WUHU21023XXSP,2013-05-15 01:26:00,
2013-05-14 20:32:00,72.3,55.1,29.67,NW,315,0.0,0.0,55,0.00,,,0.00,WUHU21023XXSP,2013-05-15 01:32:00,
2013-05-14 20:39:00,72.5,55.8,29.68,North,0,0.0,1.0,56,0.00,,,0.00,WUHU21023XXSP,2013-05-15 01:39:00,
2013-05-14 20:45:00,72.3,56.2,29.69,NNW,337,0.0,0.0,57,0.00,,,0.00,WUHU21023XXSP,2013-05-15 01:45:00,
2013-05-14 20:51:00,71.8,56.2,29.69,NW,315,0.0,0.0,58,0.00,,,0.00,WUHU21023XXSP,2013-05-15 01:51:00,
2013-05-14 20:58:00,71.2,56.7,29.70,WNW,292,0.0,0.0,60,0.00,,,0.00,WUHU21023XXSP,2013-05-15 01:58:00,
2013-05-14 21:04:00,70.7,57.1,29.67,North,0,0.0,0.0,62,0.00,,,0.00,WUHU21023XXSP,2013-05-15 02:04:00,
2013-05-14 21:11:00,69.8,57.1,29.64,SE,135,5.0,5.0,64,0.00,,,0.00,WUHU21023XXSP,2013-05-15 02:11:00,
2013-05-14 21:17:00,69.3,57.4,29.64,SSW,202,0.0,5.0,66,0.00,,,0.00,WUHU21023XXSP,2013-05-15 02:17:00,
2013-05-14 21:24:00,68.5,57.5,29.64,East,90,0.0,0.0,68,0.00,,,0.00,WUHU21023XXSP,2013-05-15 02:24:00,
2013-05-14 21:30:00,67.8,57.3,29.64,South,180,0.0,0.0,69,0.00,,,0.00,WUHU21023XXSP,2013-05-15 02:30:00,
2013-05-14 21:36:00,67.3,57.6,29.63,SSW,202,0.0,0.0,71,0.00,,,0.00,WUHU21023XXSP,2013-05-15 02:36:00,
2013-05-14 21:43:00,66.9,57.2,29.63,South,180,0.0,7.0,71,0.00,,,0.00,WUHU21023XXSP,2013-05-15 02:43:00,
2013-05-14 21:49:00,67.1,57.0,29.63,South,180,0.0,0.0,70,0.00,,,0.00,WUHU21023XXSP,2013-05-15 02:49:00,
2013-05-14 21:56:00,67.6,56.8,29.62,SSE,157,0.0,0.0,69,0.00,,,0.00,WUHU21023XXSP,2013-05-15 02:56:00,
2013-05-14 22:02:00,68.0,57.1,29.62,SE,135,4.0,4.0,68,0.00,,,0.00,WUHU21023XXSP,2013-05-15 03:02:00,
2013-05-14 22:09:00,68.5,56.7,29.60,SSE,157,0.0,7.0,66,0.00,,,0.00,WUHU21023XXSP,2013-05-15 03:09:00,
2013-05-14 22:15:00,69.1,56.8,29.59,South,180,0.0,5.0,65,0.00,,,0.00,WUHU21023XXSP,2013-05-15 03:15:00,
2013-05-14 22:21:00,69.6,56.9,29.58,SSE,157,2.0,2.0,64,0.00,,,0.00,WUHU21023XXSP,2013-05-15 03:21:00,
2013-05-14 22:28:00,70.3,57.1,29.56,South,180,9.0,9.0,63,0.00,,,0.00,WUHU21023XXSP,2013-05-15 03:28:00,
2013-05-14 22:35:00,71.2,57.1,29.56,SSW,202,6.0,9.0,61,0.00,,,0.00,WUHU21023XXSP,2013-05-15 03:35:00,
2013-05-14 22:41:00,71.6,57.5,29.56,South,180,7.0,7.0,61,0.00,,,0.00,WUHU21023XXSP,2013-05-15 03:41:00,
2013-05-14 22:48:00,72.0,57.3,29.56,South,180,0.0,7.0,60,0.00,,,0.00,WUHU21023XXSP,2013-05-15 03:48:00,
2013-05-14 22:54:00,72.0,57.8,29.56,SSW,202,0.0,0.0,61,0.00,,,0.00,WUHU21023XXSP,2013-05-15 03:54:00,
2013-05-14 23:01:00,71.8,57.6,29.56,South,180,0.0,0.0,61,0.00,,,0.00,WUHU21023XXSP,2013-05-15 04:01:00,
2013-05-14 23:03:00,71.6,57.5,29.56,SSW,202,8.0,8.0,61,0.00,,,0.00,WUHU21023XXSP,2013-05-15 04:03:00,
2013-05-14 23:05:00,71.4,57.3,29.56,SSW,202,0.0,8.0,61,0.00,,,0.00,WUHU21023XXSP,2013-05-15 04:05:00,
2013-05-14 23:07:00,71.4,57.3,29.56,SSW,202,0.0,8.0,61,0.00,,,0.00,WUHU21023XXSP,2013-05-15 04:07:00,
2013-05-14 23:13:00,71.4,57.3,29.56,SW,225,5.0,5.0,61,0.00,,,0.00,WUHU21023XXSP,2013-05-15 04:13:00,
2013-05-14 23:20:00,71.8,57.6,29.56,South,180,0.0,9.0,61,0.00,,,0.00,WUHU21023XXSP,2013-05-15 04:20:00,
2013-05-14 23:26:00,72.7,58.0,29.56,SSW,202,0.0,9.0,60,0.00,,,0.00,WUHU21023XXSP,2013-05-15 04:26:00,
2013-05-14 23:33:00,73.8,58.5,29.56,SSW,202,6.0,6.0,59,0.00,,,0.00,WUHU21023XXSP,2013-05-15 04:33:00,
2013-05-14 23:39:00,74.5,59.2,29.56,SSW,202,11.0,11.0,59,0.00,,,0.00,WUHU21023XXSP,2013-05-15 04:39:00,
2013-05-14 23:45:00,75.0,59.8,29.56,SSW,202,5.0,11.0,59,0.00,,,0.00,WUHU21023XXSP,2013-05-15 04:45:00,
2013-05-14 23:52:00,75.7,59.9,29.56,SW,225,9.0,11.0,58,0.00,,,0.00,WUHU21023XXSP,2013-05-15 04:52:00,
2013-05-14 23:58:00,76.5,60.6,29.56,SSE,157,4.0,9.0,58,0.00,,,0.00,WUHU21023XXSP,2013-05-15 04:58:00,